sensor_id;sensor_type;location;lat;lon;timestamp;P1;durP1;ratioP1;P2;durP2;ratioP2
39020;SDS011;25188;51.958;5.842;2023-05-29T00:01:32;17.17;;;2.90;;
39020;SDS011;25188;51.958;5.842;2023-05-29T00:03:59;14.05;;;3.10;;
39020;SDS011;25188;51.958;5.842;2023-05-29T00:06:24;16.88;;;2.50;;
39020;SDS011;25188;51.958;5.842;2023-05-29T00:08:50;14.65;;;3.42;;
39020;SDS011;25188;51.958;5.842;2023-05-29T00:11:16;19.10;;;2.67;;
39020;SDS011;25188;51.958;5.842;2023-05-29T00:13:41;12.27;;;2.50;;
39020;SDS011;25188;51.958;5.842;2023-05-29T00:16:07;18.80;;;3.15;;
39020;SDS011;25188;51.958;5.842;2023-05-29T00:18:34;14.98;;;3.10;;
39020;SDS011;25188;51.958;5.842;2023-05-29T00:21:00;18.75;;;2.83;;
39020;SDS011;25188;51.958;5.842;2023-05-29T00:23:26;17.17;;;2.83;;
39020;SDS011;25188;51.958;5.842;2023-05-29T00:25:52;12.20;;;2.80;;
39020;SDS011;25188;51.958;5.842;2023-05-29T00:28:18;14.50;;;2.10;;
39020;SDS011;25188;51.958;5.842;2023-05-29T00:30:43;15.88;;;2.53;;
39020;SDS011;25188;51.958;5.842;2023-05-29T00:33:09;15.57;;;2.95;;
39020;SDS011;25188;51.958;5.842;2023-05-29T00:35:35;13.93;;;2.88;;
39020;SDS011;25188;51.958;5.842;2023-05-29T00:38:01;13.57;;;1.88;;
39020;SDS011;25188;51.958;5.842;2023-05-29T00:40:26;15.80;;;3.60;;
39020;SDS011;25188;51.958;5.842;2023-05-29T00:42:52;13.38;;;2.53;;
39020;SDS011;25188;51.958;5.842;2023-05-29T00:45:18;18.07;;;2.80;;
39020;SDS011;25188;51.958;5.842;2023-05-29T00:47:43;17.05;;;2.67;;
39020;SDS011;25188;51.958;5.842;2023-05-29T00:50:10;16.13;;;2.80;;
39020;SDS011;25188;51.958;5.842;2023-05-29T00:52:38;20.38;;;2.70;;
39020;SDS011;25188;51.958;5.842;2023-05-29T00:55:06;11.38;;;2.42;;
39020;SDS011;25188;51.958;5.842;2023-05-29T00:57:33;19.40;;;2.77;;
39020;SDS011;25188;51.958;5.842;2023-05-29T01:00:00;16.57;;;2.70;;
39020;SDS011;25188;51.958;5.842;2023-05-29T01:02:30;21.55;;;3.15;;
39020;SDS011;25188;51.958;5.842;2023-05-29T01:04:56;10.50;;;1.83;;
39020;SDS011;25188;51.958;5.842;2023-05-29T01:07:22;9.50;;;2.03;;
39020;SDS011;25188;51.958;5.842;2023-05-29T01:09:48;9.47;;;1.93;;
39020;SDS011;25188;51.958;5.842;2023-05-29T01:15:21;17.73;;;2.83;;
39020;SDS011;25188;51.958;5.842;2023-05-29T01:26:20;15.23;;;2.40;;
39020;SDS011;25188;51.958;5.842;2023-05-29T01:29:08;15.40;;;2.40;;
39020;SDS011;25188;51.958;5.842;2023-05-29T01:31:37;11.53;;;2.10;;
39020;SDS011;25188;51.958;5.842;2023-05-29T01:34:04;10.07;;;2.13;;
39020;SDS011;25188;51.958;5.842;2023-05-29T01:36:30;12.10;;;2.13;;
39020;SDS011;25188;51.958;5.842;2023-05-29T01:38:57;15.97;;;2.87;;
39020;SDS011;25188;51.958;5.842;2023-05-29T01:41:24;14.40;;;2.40;;
39020;SDS011;25188;51.958;5.842;2023-05-29T01:43:51;12.17;;;1.90;;
39020;SDS011;25188;51.958;5.842;2023-05-29T01:46:18;10.40;;;1.90;;
39020;SDS011;25188;51.958;5.842;2023-05-29T01:48:45;15.27;;;2.17;;
39020;SDS011;25188;51.958;5.842;2023-05-29T01:51:12;17.10;;;2.40;;
39020;SDS011;25188;51.958;5.842;2023-05-29T01:53:38;13.67;;;2.30;;
39020;SDS011;25188;51.958;5.842;2023-05-29T01:56:08;15.10;;;1.47;;
39020;SDS011;25188;51.958;5.842;2023-05-29T01:58:34;17.60;;;2.90;;
39020;SDS011;25188;51.958;5.842;2023-05-29T02:01:02;14.83;;;2.07;;
39020;SDS011;25188;51.958;5.842;2023-05-29T02:03:29;17.77;;;3.33;;
39020;SDS011;25188;51.958;5.842;2023-05-29T02:05:55;19.97;;;2.63;;
39020;SDS011;25188;51.958;5.842;2023-05-29T02:08:24;13.37;;;2.10;;
39020;SDS011;25188;51.958;5.842;2023-05-29T02:10:50;16.27;;;2.67;;
39020;SDS011;25188;51.958;5.842;2023-05-29T02:13:16;15.10;;;2.50;;
39020;SDS011;25188;51.958;5.842;2023-05-29T02:15:42;12.27;;;2.43;;
39020;SDS011;25188;51.958;5.842;2023-05-29T02:18:09;14.13;;;2.10;;
39020;SDS011;25188;51.958;5.842;2023-05-29T02:20:37;10.50;;;2.57;;
39020;SDS011;25188;51.958;5.842;2023-05-29T02:23:03;22.37;;;2.47;;
39020;SDS011;25188;51.958;5.842;2023-05-29T02:25:28;14.43;;;2.40;;
39020;SDS011;25188;51.958;5.842;2023-05-29T02:27:54;14.93;;;2.30;;
39020;SDS011;25188;51.958;5.842;2023-05-29T02:30:20;13.87;;;2.10;;
39020;SDS011;25188;51.958;5.842;2023-05-29T02:32:45;14.17;;;2.03;;
39020;SDS011;25188;51.958;5.842;2023-05-29T02:35:11;15.53;;;2.10;;
39020;SDS011;25188;51.958;5.842;2023-05-29T02:37:40;10.57;;;2.00;;
39020;SDS011;25188;51.958;5.842;2023-05-29T02:40:06;14.00;;;2.30;;
39020;SDS011;25188;51.958;5.842;2023-05-29T02:42:34;12.40;;;2.10;;
39020;SDS011;25188;51.958;5.842;2023-05-29T02:45:00;11.37;;;2.23;;
39020;SDS011;25188;51.958;5.842;2023-05-29T02:47:25;13.77;;;1.83;;
39020;SDS011;25188;51.958;5.842;2023-05-29T02:49:51;19.37;;;2.37;;
39020;SDS011;25188;51.958;5.842;2023-05-29T02:52:17;15.53;;;3.83;;
39020;SDS011;25188;51.958;5.842;2023-05-29T02:54:42;17.10;;;2.57;;
39020;SDS011;25188;51.958;5.842;2023-05-29T02:57:08;14.53;;;2.27;;
39020;SDS011;25188;51.958;5.842;2023-05-29T02:59:34;15.43;;;2.83;;
39020;SDS011;25188;51.958;5.842;2023-05-29T03:02:00;12.83;;;2.27;;
39020;SDS011;25188;51.958;5.842;2023-05-29T03:04:26;17.00;;;2.47;;
39020;SDS011;25188;51.958;5.842;2023-05-29T03:06:52;14.53;;;2.50;;
39020;SDS011;25188;51.958;5.842;2023-05-29T03:09:19;14.60;;;2.50;;
39020;SDS011;25188;51.958;5.842;2023-05-29T03:11:45;16.93;;;2.00;;
39020;SDS011;25188;51.958;5.842;2023-05-29T03:14:12;14.83;;;2.00;;
39020;SDS011;25188;51.958;5.842;2023-05-29T03:16:38;15.27;;;2.47;;
39020;SDS011;25188;51.958;5.842;2023-05-29T03:19:05;12.93;;;2.20;;
39020;SDS011;25188;51.958;5.842;2023-05-29T03:21:32;15.07;;;2.20;;
39020;SDS011;25188;51.958;5.842;2023-05-29T03:23:58;15.40;;;2.23;;
39020;SDS011;25188;51.958;5.842;2023-05-29T03:26:25;12.93;;;2.90;;
39020;SDS011;25188;51.958;5.842;2023-05-29T03:28:51;16.43;;;2.60;;
39020;SDS011;25188;51.958;5.842;2023-05-29T03:31:17;17.53;;;3.60;;
39020;SDS011;25188;51.958;5.842;2023-05-29T03:33:42;19.43;;;3.13;;
39020;SDS011;25188;51.958;5.842;2023-05-29T03:36:08;18.57;;;3.37;;
39020;SDS011;25188;51.958;5.842;2023-05-29T03:38:34;21.67;;;3.17;;
39020;SDS011;25188;51.958;5.842;2023-05-29T03:40:59;16.00;;;2.97;;
39020;SDS011;25188;51.958;5.842;2023-05-29T03:43:25;17.37;;;3.33;;
39020;SDS011;25188;51.958;5.842;2023-05-29T03:45:51;18.17;;;2.20;;
39020;SDS011;25188;51.958;5.842;2023-05-29T03:48:16;14.30;;;2.40;;
39020;SDS011;25188;51.958;5.842;2023-05-29T03:50:42;13.27;;;2.50;;
39020;SDS011;25188;51.958;5.842;2023-05-29T03:53:07;14.70;;;2.87;;
39020;SDS011;25188;51.958;5.842;2023-05-29T03:55:33;21.07;;;3.30;;
39020;SDS011;25188;51.958;5.842;2023-05-29T03:57:59;14.93;;;2.47;;
39020;SDS011;25188;51.958;5.842;2023-05-29T04:00:25;14.97;;;2.10;;
39020;SDS011;25188;51.958;5.842;2023-05-29T04:02:50;15.13;;;2.60;;
39020;SDS011;25188;51.958;5.842;2023-05-29T04:05:16;12.67;;;2.97;;
39020;SDS011;25188;51.958;5.842;2023-05-29T04:07:42;15.23;;;1.97;;
39020;SDS011;25188;51.958;5.842;2023-05-29T04:10:08;14.57;;;1.93;;
39020;SDS011;25188;51.958;5.842;2023-05-29T04:12:34;15.33;;;3.00;;
39020;SDS011;25188;51.958;5.842;2023-05-29T04:15:00;17.90;;;2.50;;
39020;SDS011;25188;51.958;5.842;2023-05-29T04:17:25;16.27;;;2.93;;
39020;SDS011;25188;51.958;5.842;2023-05-29T04:19:51;14.23;;;2.33;;
39020;SDS011;25188;51.958;5.842;2023-05-29T04:22:17;18.37;;;2.77;;
39020;SDS011;25188;51.958;5.842;2023-05-29T04:24:43;17.27;;;2.63;;
39020;SDS011;25188;51.958;5.842;2023-05-29T04:27:08;15.80;;;2.60;;
39020;SDS011;25188;51.958;5.842;2023-05-29T04:29:38;17.67;;;2.40;;
39020;SDS011;25188;51.958;5.842;2023-05-29T04:32:05;14.63;;;2.40;;
39020;SDS011;25188;51.958;5.842;2023-05-29T04:34:33;13.23;;;2.53;;
39020;SDS011;25188;51.958;5.842;2023-05-29T04:36:59;13.23;;;2.67;;
39020;SDS011;25188;51.958;5.842;2023-05-29T04:39:25;15.73;;;2.87;;
39020;SDS011;25188;51.958;5.842;2023-05-29T04:41:51;16.43;;;2.03;;
39020;SDS011;25188;51.958;5.842;2023-05-29T04:44:17;18.27;;;3.30;;
39020;SDS011;25188;51.958;5.842;2023-05-29T04:46:43;15.10;;;2.10;;
39020;SDS011;25188;51.958;5.842;2023-05-29T04:49:09;18.70;;;2.53;;
39020;SDS011;25188;51.958;5.842;2023-05-29T04:51:38;17.17;;;2.23;;
39020;SDS011;25188;51.958;5.842;2023-05-29T04:54:07;11.33;;;2.17;;
39020;SDS011;25188;51.958;5.842;2023-05-29T04:56:34;12.20;;;2.30;;
39020;SDS011;25188;51.958;5.842;2023-05-29T04:58:59;16.70;;;2.30;;
39020;SDS011;25188;51.958;5.842;2023-05-29T05:01:25;15.13;;;2.43;;
39020;SDS011;25188;51.958;5.842;2023-05-29T05:03:51;21.33;;;2.77;;
39020;SDS011;25188;51.958;5.842;2023-05-29T05:06:22;16.73;;;2.70;;
39020;SDS011;25188;51.958;5.842;2023-05-29T05:08:50;18.37;;;2.43;;
39020;SDS011;25188;51.958;5.842;2023-05-29T05:11:16;16.90;;;2.83;;
39020;SDS011;25188;51.958;5.842;2023-05-29T05:13:43;13.77;;;2.20;;
39020;SDS011;25188;51.958;5.842;2023-05-29T05:16:09;16.13;;;2.80;;
39020;SDS011;25188;51.958;5.842;2023-05-29T05:18:35;16.73;;;2.70;;
39020;SDS011;25188;51.958;5.842;2023-05-29T05:21:01;13.93;;;2.10;;
39020;SDS011;25188;51.958;5.842;2023-05-29T05:23:28;18.97;;;2.30;;
39020;SDS011;25188;51.958;5.842;2023-05-29T05:25:56;16.10;;;3.23;;
39020;SDS011;25188;51.958;5.842;2023-05-29T05:28:21;18.90;;;2.40;;
39020;SDS011;25188;51.958;5.842;2023-05-29T05:30:47;19.03;;;2.60;;
39020;SDS011;25188;51.958;5.842;2023-05-29T05:33:13;22.20;;;3.03;;
39020;SDS011;25188;51.958;5.842;2023-05-29T05:35:38;13.60;;;2.17;;
39020;SDS011;25188;51.958;5.842;2023-05-29T05:38:04;13.27;;;2.63;;
39020;SDS011;25188;51.958;5.842;2023-05-29T05:40:31;19.47;;;2.13;;
39020;SDS011;25188;51.958;5.842;2023-05-29T05:42:57;14.37;;;2.60;;
39020;SDS011;25188;51.958;5.842;2023-05-29T05:45:22;13.80;;;1.70;;
39020;SDS011;25188;51.958;5.842;2023-05-29T05:47:48;16.63;;;3.17;;
39020;SDS011;25188;51.958;5.842;2023-05-29T05:50:14;16.83;;;2.60;;
39020;SDS011;25188;51.958;5.842;2023-05-29T05:52:40;11.40;;;2.43;;
39020;SDS011;25188;51.958;5.842;2023-05-29T05:55:06;12.10;;;2.13;;
39020;SDS011;25188;51.958;5.842;2023-05-29T05:57:32;17.45;;;1.92;;
39020;SDS011;25188;51.958;5.842;2023-05-29T05:59:59;19.40;;;3.13;;
39020;SDS011;25188;51.958;5.842;2023-05-29T06:02:25;17.20;;;2.60;;
39020;SDS011;25188;51.958;5.842;2023-05-29T06:04:51;18.27;;;2.27;;
39020;SDS011;25188;51.958;5.842;2023-05-29T06:07:17;10.40;;;1.87;;
39020;SDS011;25188;51.958;5.842;2023-05-29T06:09:43;17.10;;;2.33;;
39020;SDS011;25188;51.958;5.842;2023-05-29T06:12:08;15.03;;;1.87;;
39020;SDS011;25188;51.958;5.842;2023-05-29T06:14:34;8.97;;;1.67;;
39020;SDS011;25188;51.958;5.842;2023-05-29T06:17:00;16.37;;;2.20;;
39020;SDS011;25188;51.958;5.842;2023-05-29T06:19:26;9.57;;;2.00;;
39020;SDS011;25188;51.958;5.842;2023-05-29T06:21:52;15.52;;;2.78;;
39020;SDS011;25188;51.958;5.842;2023-05-29T06:24:17;14.67;;;1.83;;
39020;SDS011;25188;51.958;5.842;2023-05-29T06:26:43;16.02;;;2.05;;
39020;SDS011;25188;51.958;5.842;2023-05-29T06:29:09;16.20;;;1.85;;
39020;SDS011;25188;51.958;5.842;2023-05-29T06:31:35;12.40;;;1.73;;
39020;SDS011;25188;51.958;5.842;2023-05-29T06:34:00;10.65;;;1.77;;
39020;SDS011;25188;51.958;5.842;2023-05-29T06:36:26;14.10;;;1.67;;
39020;SDS011;25188;51.958;5.842;2023-05-29T06:38:52;19.83;;;2.42;;
39020;SDS011;25188;51.958;5.842;2023-05-29T06:41:17;10.25;;;1.70;;
39020;SDS011;25188;51.958;5.842;2023-05-29T06:43:43;15.18;;;2.05;;
39020;SDS011;25188;51.958;5.842;2023-05-29T06:46:09;12.25;;;2.13;;
39020;SDS011;25188;51.958;5.842;2023-05-29T06:48:35;18.45;;;2.60;;
39020;SDS011;25188;51.958;5.842;2023-05-29T06:51:01;14.10;;;2.00;;
39020;SDS011;25188;51.958;5.842;2023-05-29T06:53:34;14.60;;;1.90;;
39020;SDS011;25188;51.958;5.842;2023-05-29T06:56:04;9.93;;;2.45;;
39020;SDS011;25188;51.958;5.842;2023-05-29T06:58:30;11.82;;;1.23;;
39020;SDS011;25188;51.958;5.842;2023-05-29T07:00:56;10.15;;;1.83;;
39020;SDS011;25188;51.958;5.842;2023-05-29T07:03:22;13.15;;;1.80;;
39020;SDS011;25188;51.958;5.842;2023-05-29T07:05:48;13.07;;;2.42;;
39020;SDS011;25188;51.958;5.842;2023-05-29T07:08:14;11.32;;;1.70;;
39020;SDS011;25188;51.958;5.842;2023-05-29T07:10:40;14.02;;;2.58;;
39020;SDS011;25188;51.958;5.842;2023-05-29T07:13:05;11.60;;;1.77;;
39020;SDS011;25188;51.958;5.842;2023-05-29T07:15:31;14.98;;;2.63;;
39020;SDS011;25188;51.958;5.842;2023-05-29T07:17:57;12.25;;;1.88;;
39020;SDS011;25188;51.958;5.842;2023-05-29T07:20:22;8.40;;;1.40;;
39020;SDS011;25188;51.958;5.842;2023-05-29T07:22:48;14.25;;;1.95;;
39020;SDS011;25188;51.958;5.842;2023-05-29T07:25:14;10.68;;;1.85;;
39020;SDS011;25188;51.958;5.842;2023-05-29T07:27:40;11.50;;;1.58;;
39020;SDS011;25188;51.958;5.842;2023-05-29T07:30:06;10.73;;;1.83;;
39020;SDS011;25188;51.958;5.842;2023-05-29T07:32:32;13.23;;;2.08;;
39020;SDS011;25188;51.958;5.842;2023-05-29T07:34:58;11.77;;;2.20;;
39020;SDS011;25188;51.958;5.842;2023-05-29T07:37:23;9.23;;;1.77;;
39020;SDS011;25188;51.958;5.842;2023-05-29T07:39:49;11.68;;;1.40;;
39020;SDS011;25188;51.958;5.842;2023-05-29T07:42:15;11.63;;;1.80;;
39020;SDS011;25188;51.958;5.842;2023-05-29T07:44:40;10.20;;;1.48;;
39020;SDS011;25188;51.958;5.842;2023-05-29T07:47:08;13.05;;;1.75;;
39020;SDS011;25188;51.958;5.842;2023-05-29T07:49:34;8.57;;;1.50;;
39020;SDS011;25188;51.958;5.842;2023-05-29T07:52:01;8.35;;;1.70;;
39020;SDS011;25188;51.958;5.842;2023-05-29T07:54:30;9.63;;;1.65;;
39020;SDS011;25188;51.958;5.842;2023-05-29T07:56:58;10.07;;;1.52;;
39020;SDS011;25188;51.958;5.842;2023-05-29T07:59:25;9.93;;;2.08;;
39020;SDS011;25188;51.958;5.842;2023-05-29T08:01:51;9.05;;;1.70;;
39020;SDS011;25188;51.958;5.842;2023-05-29T08:04:17;10.48;;;1.30;;
39020;SDS011;25188;51.958;5.842;2023-05-29T08:06:42;9.15;;;2.28;;
39020;SDS011;25188;51.958;5.842;2023-05-29T08:09:08;13.80;;;2.10;;
39020;SDS011;25188;51.958;5.842;2023-05-29T08:11:35;12.30;;;1.65;;
39020;SDS011;25188;51.958;5.842;2023-05-29T08:14:01;10.38;;;1.23;;
39020;SDS011;25188;51.958;5.842;2023-05-29T08:16:27;11.88;;;1.85;;
39020;SDS011;25188;51.958;5.842;2023-05-29T08:18:53;10.18;;;1.23;;
39020;SDS011;25188;51.958;5.842;2023-05-29T08:21:19;12.63;;;1.35;;
39020;SDS011;25188;51.958;5.842;2023-05-29T08:23:45;13.50;;;1.67;;
39020;SDS011;25188;51.958;5.842;2023-05-29T08:26:10;14.32;;;1.65;;
39020;SDS011;25188;51.958;5.842;2023-05-29T08:28:37;9.20;;;1.42;;
39020;SDS011;25188;51.958;5.842;2023-05-29T08:31:03;9.60;;;1.40;;
39020;SDS011;25188;51.958;5.842;2023-05-29T08:33:28;10.18;;;1.75;;
39020;SDS011;25188;51.958;5.842;2023-05-29T08:35:56;10.05;;;1.60;;
39020;SDS011;25188;51.958;5.842;2023-05-29T08:38:23;6.47;;;1.38;;
39020;SDS011;25188;51.958;5.842;2023-05-29T08:40:50;10.10;;;1.80;;
39020;SDS011;25188;51.958;5.842;2023-05-29T08:43:18;11.10;;;1.63;;
39020;SDS011;25188;51.958;5.842;2023-05-29T08:45:46;13.45;;;1.98;;
39020;SDS011;25188;51.958;5.842;2023-05-29T08:48:17;8.95;;;1.83;;
39020;SDS011;25188;51.958;5.842;2023-05-29T08:50:47;9.45;;;1.77;;
39020;SDS011;25188;51.958;5.842;2023-05-29T08:53:13;11.88;;;2.08;;
39020;SDS011;25188;51.958;5.842;2023-05-29T08:55:40;10.73;;;1.30;;
39020;SDS011;25188;51.958;5.842;2023-05-29T08:58:06;6.88;;;1.65;;
39020;SDS011;25188;51.958;5.842;2023-05-29T09:00:33;7.65;;;1.48;;
39020;SDS011;25188;51.958;5.842;2023-05-29T09:02:59;7.80;;;1.35;;
39020;SDS011;25188;51.958;5.842;2023-05-29T09:05:25;11.43;;;1.60;;
39020;SDS011;25188;51.958;5.842;2023-05-29T09:07:54;9.05;;;1.40;;
39020;SDS011;25188;51.958;5.842;2023-05-29T09:10:21;9.10;;;1.70;;
39020;SDS011;25188;51.958;5.842;2023-05-29T09:12:47;8.27;;;1.38;;
39020;SDS011;25188;51.958;5.842;2023-05-29T09:15:21;8.95;;;2.05;;
39020;SDS011;25188;51.958;5.842;2023-05-29T09:17:55;10.95;;;1.65;;
39020;SDS011;25188;51.958;5.842;2023-05-29T09:20:22;12.00;;;1.95;;
39020;SDS011;25188;51.958;5.842;2023-05-29T09:22:59;9.32;;;1.50;;
39020;SDS011;25188;51.958;5.842;2023-05-29T09:25:27;6.05;;;1.45;;
39020;SDS011;25188;51.958;5.842;2023-05-29T09:27:55;8.18;;;1.40;;
39020;SDS011;25188;51.958;5.842;2023-05-29T09:30:30;9.18;;;1.63;;
39020;SDS011;25188;51.958;5.842;2023-05-29T09:32:59;10.60;;;2.10;;
39020;SDS011;25188;51.958;5.842;2023-05-29T09:35:26;8.93;;;1.60;;
39020;SDS011;25188;51.958;5.842;2023-05-29T09:38:01;7.60;;;2.08;;
39020;SDS011;25188;51.958;5.842;2023-05-29T09:40:34;6.45;;;1.75;;
39020;SDS011;25188;51.958;5.842;2023-05-29T09:43:01;7.78;;;1.23;;
39020;SDS011;25188;51.958;5.842;2023-05-29T09:45:29;6.65;;;1.30;;
39020;SDS011;25188;51.958;5.842;2023-05-29T09:47:55;7.68;;;1.63;;
39020;SDS011;25188;51.958;5.842;2023-05-29T09:50:25;9.82;;;1.48;;
39020;SDS011;25188;51.958;5.842;2023-05-29T09:52:51;11.60;;;1.60;;
39020;SDS011;25188;51.958;5.842;2023-05-29T09:55:21;7.22;;;1.27;;
39020;SDS011;25188;51.958;5.842;2023-05-29T09:57:48;6.88;;;1.48;;
39020;SDS011;25188;51.958;5.842;2023-05-29T10:00:15;8.93;;;2.00;;
39020;SDS011;25188;51.958;5.842;2023-05-29T10:02:42;7.90;;;2.10;;
39020;SDS011;25188;51.958;5.842;2023-05-29T10:05:08;7.30;;;1.60;;
39020;SDS011;25188;51.958;5.842;2023-05-29T10:07:36;6.75;;;1.27;;
39020;SDS011;25188;51.958;5.842;2023-05-29T10:10:04;8.02;;;1.58;;
39020;SDS011;25188;51.958;5.842;2023-05-29T10:12:32;8.18;;;1.88;;
39020;SDS011;25188;51.958;5.842;2023-05-29T10:15:05;8.27;;;1.40;;
39020;SDS011;25188;51.958;5.842;2023-05-29T10:17:36;7.80;;;1.75;;
39020;SDS011;25188;51.958;5.842;2023-05-29T10:20:05;8.85;;;1.55;;
39020;SDS011;25188;51.958;5.842;2023-05-29T10:22:35;8.15;;;1.52;;
39020;SDS011;25188;51.958;5.842;2023-05-29T10:25:06;4.53;;;0.98;;
39020;SDS011;25188;51.958;5.842;2023-05-29T10:27:34;6.72;;;0.95;;
39020;SDS011;25188;51.958;5.842;2023-05-29T10:30:09;7.03;;;1.30;;
39020;SDS011;25188;51.958;5.842;2023-05-29T10:32:56;8.68;;;1.30;;
39020;SDS011;25188;51.958;5.842;2023-05-29T10:35:47;10.25;;;1.50;;
39020;SDS011;25188;51.958;5.842;2023-05-29T10:38:18;7.53;;;1.52;;
39020;SDS011;25188;51.958;5.842;2023-05-29T10:40:45;7.00;;;1.23;;
39020;SDS011;25188;51.958;5.842;2023-05-29T10:43:33;8.48;;;1.42;;
39020;SDS011;25188;51.958;5.842;2023-05-29T10:45:58;5.88;;;1.27;;
39020;SDS011;25188;51.958;5.842;2023-05-29T10:50:56;10.07;;;1.33;;
39020;SDS011;25188;51.958;5.842;2023-05-29T10:53:25;7.40;;;1.58;;
39020;SDS011;25188;51.958;5.842;2023-05-29T10:55:56;7.07;;;1.27;;
39020;SDS011;25188;51.958;5.842;2023-05-29T10:58:22;9.02;;;1.60;;
39020;SDS011;25188;51.958;5.842;2023-05-29T11:00:49;5.32;;;1.05;;
39020;SDS011;25188;51.958;5.842;2023-05-29T11:03:33;9.20;;;1.00;;
39020;SDS011;25188;51.958;5.842;2023-05-29T11:08:45;7.97;;;1.27;;
39020;SDS011;25188;51.958;5.842;2023-05-29T11:13:53;6.35;;;1.30;;
39020;SDS011;25188;51.958;5.842;2023-05-29T11:18:55;7.80;;;1.33;;
39020;SDS011;25188;51.958;5.842;2023-05-29T11:24:06;9.43;;;1.75;;
39020;SDS011;25188;51.958;5.842;2023-05-29T11:26:32;8.68;;;1.63;;
39020;SDS011;25188;51.958;5.842;2023-05-29T11:29:03;14.02;;;3.03;;
39020;SDS011;25188;51.958;5.842;2023-05-29T11:31:31;10.85;;;1.90;;
39020;SDS011;25188;51.958;5.842;2023-05-29T11:33:59;9.25;;;2.00;;
39020;SDS011;25188;51.958;5.842;2023-05-29T11:36:27;7.82;;;1.67;;
39020;SDS011;25188;51.958;5.842;2023-05-29T11:38:53;7.32;;;2.05;;
39020;SDS011;25188;51.958;5.842;2023-05-29T11:41:19;9.18;;;1.50;;
39020;SDS011;25188;51.958;5.842;2023-05-29T11:43:55;9.52;;;1.85;;
39020;SDS011;25188;51.958;5.842;2023-05-29T11:46:26;8.30;;;1.20;;
39020;SDS011;25188;51.958;5.842;2023-05-29T11:48:53;8.13;;;2.00;;
39020;SDS011;25188;51.958;5.842;2023-05-29T11:51:19;7.28;;;1.52;;
39020;SDS011;25188;51.958;5.842;2023-05-29T11:53:46;7.10;;;1.60;;
39020;SDS011;25188;51.958;5.842;2023-05-29T11:56:12;11.23;;;2.10;;
39020;SDS011;25188;51.958;5.842;2023-05-29T11:58:38;7.88;;;1.63;;
39020;SDS011;25188;51.958;5.842;2023-05-29T12:01:05;7.80;;;1.83;;
39020;SDS011;25188;51.958;5.842;2023-05-29T12:03:42;8.68;;;1.67;;
39020;SDS011;25188;51.958;5.842;2023-05-29T12:06:11;9.63;;;2.00;;
39020;SDS011;25188;51.958;5.842;2023-05-29T12:08:37;8.38;;;1.95;;
39020;SDS011;25188;51.958;5.842;2023-05-29T12:11:03;4.40;;;1.35;;
39020;SDS011;25188;51.958;5.842;2023-05-29T12:13:29;5.63;;;1.58;;
39020;SDS011;25188;51.958;5.842;2023-05-29T12:15:59;4.55;;;1.15;;
39020;SDS011;25188;51.958;5.842;2023-05-29T12:18:27;5.20;;;1.38;;
39020;SDS011;25188;51.958;5.842;2023-05-29T12:20:57;7.50;;;1.40;;
39020;SDS011;25188;51.958;5.842;2023-05-29T12:23:24;7.43;;;1.60;;
39020;SDS011;25188;51.958;5.842;2023-05-29T12:25:51;7.32;;;1.48;;
39020;SDS011;25188;51.958;5.842;2023-05-29T12:28:18;7.22;;;1.67;;
39020;SDS011;25188;51.958;5.842;2023-05-29T12:30:46;7.05;;;1.40;;
39020;SDS011;25188;51.958;5.842;2023-05-29T12:33:30;11.98;;;1.90;;
39020;SDS011;25188;51.958;5.842;2023-05-29T12:36:04;9.13;;;1.50;;
39020;SDS011;25188;51.958;5.842;2023-05-29T12:38:49;6.82;;;2.00;;
39020;SDS011;25188;51.958;5.842;2023-05-29T12:43:49;7.32;;;1.27;;
39020;SDS011;25188;51.958;5.842;2023-05-29T12:46:14;7.07;;;1.88;;
39020;SDS011;25188;51.958;5.842;2023-05-29T12:48:41;6.63;;;1.60;;
39020;SDS011;25188;51.958;5.842;2023-05-29T12:51:07;8.02;;;1.63;;
39020;SDS011;25188;51.958;5.842;2023-05-29T12:53:33;12.07;;;1.98;;
39020;SDS011;25188;51.958;5.842;2023-05-29T12:55:59;10.13;;;1.50;;
39020;SDS011;25188;51.958;5.842;2023-05-29T12:58:24;6.15;;;1.50;;
39020;SDS011;25188;51.958;5.842;2023-05-29T13:00:52;8.23;;;1.73;;
39020;SDS011;25188;51.958;5.842;2023-05-29T13:03:21;6.38;;;1.67;;
39020;SDS011;25188;51.958;5.842;2023-05-29T13:05:51;7.15;;;1.63;;
39020;SDS011;25188;51.958;5.842;2023-05-29T13:08:18;5.78;;;1.60;;
39020;SDS011;25188;51.958;5.842;2023-05-29T13:10:44;10.35;;;2.00;;
39020;SDS011;25188;51.958;5.842;2023-05-29T13:13:10;7.97;;;1.35;;
39020;SDS011;25188;51.958;5.842;2023-05-29T13:15:37;6.43;;;1.73;;
39020;SDS011;25188;51.958;5.842;2023-05-29T13:18:05;10.73;;;1.75;;
39020;SDS011;25188;51.958;5.842;2023-05-29T13:20:31;6.47;;;1.33;;
39020;SDS011;25188;51.958;5.842;2023-05-29T13:22:57;7.53;;;1.98;;
39020;SDS011;25188;51.958;5.842;2023-05-29T13:25:22;7.10;;;1.40;;
39020;SDS011;25188;51.958;5.842;2023-05-29T13:27:50;7.47;;;1.50;;
39020;SDS011;25188;51.958;5.842;2023-05-29T13:30:16;6.97;;;1.25;;
39020;SDS011;25188;51.958;5.842;2023-05-29T13:32:42;7.10;;;1.27;;
39020;SDS011;25188;51.958;5.842;2023-05-29T13:35:08;7.40;;;1.80;;
39020;SDS011;25188;51.958;5.842;2023-05-29T13:37:37;8.75;;;1.73;;
39020;SDS011;25188;51.958;5.842;2023-05-29T13:40:04;8.13;;;1.73;;
39020;SDS011;25188;51.958;5.842;2023-05-29T13:42:30;6.50;;;1.83;;
39020;SDS011;25188;51.958;5.842;2023-05-29T13:44:56;7.00;;;1.42;;
39020;SDS011;25188;51.958;5.842;2023-05-29T13:47:22;6.43;;;1.70;;
39020;SDS011;25188;51.958;5.842;2023-05-29T13:49:48;12.52;;;2.35;;
39020;SDS011;25188;51.958;5.842;2023-05-29T13:52:13;8.73;;;1.45;;
39020;SDS011;25188;51.958;5.842;2023-05-29T13:54:41;10.25;;;1.60;;
39020;SDS011;25188;51.958;5.842;2023-05-29T13:57:07;7.38;;;1.45;;
39020;SDS011;25188;51.958;5.842;2023-05-29T13:59:33;7.15;;;1.38;;
39020;SDS011;25188;51.958;5.842;2023-05-29T14:01:59;8.57;;;1.70;;
39020;SDS011;25188;51.958;5.842;2023-05-29T14:04:25;6.70;;;1.85;;
39020;SDS011;25188;51.958;5.842;2023-05-29T14:06:52;5.97;;;1.42;;
39020;SDS011;25188;51.958;5.842;2023-05-29T14:09:18;6.40;;;1.55;;
39020;SDS011;25188;51.958;5.842;2023-05-29T14:11:51;4.60;;;1.20;;
39020;SDS011;25188;51.958;5.842;2023-05-29T14:14:17;5.93;;;1.65;;
39020;SDS011;25188;51.958;5.842;2023-05-29T14:16:43;5.68;;;1.45;;
39020;SDS011;25188;51.958;5.842;2023-05-29T14:19:08;5.15;;;1.10;;
39020;SDS011;25188;51.958;5.842;2023-05-29T14:21:34;5.47;;;1.30;;
39020;SDS011;25188;51.958;5.842;2023-05-29T14:24:00;4.85;;;1.23;;
39020;SDS011;25188;51.958;5.842;2023-05-29T14:26:26;4.88;;;1.40;;
39020;SDS011;25188;51.958;5.842;2023-05-29T14:28:52;10.43;;;1.60;;
39020;SDS011;25188;51.958;5.842;2023-05-29T14:31:18;7.75;;;1.40;;
39020;SDS011;25188;51.958;5.842;2023-05-29T14:33:43;5.47;;;1.33;;
39020;SDS011;25188;51.958;5.842;2023-05-29T14:36:09;8.60;;;1.60;;
39020;SDS011;25188;51.958;5.842;2023-05-29T14:38:35;5.68;;;1.42;;
39020;SDS011;25188;51.958;5.842;2023-05-29T14:41:01;8.95;;;2.08;;
39020;SDS011;25188;51.958;5.842;2023-05-29T14:43:27;7.28;;;1.15;;
39020;SDS011;25188;51.958;5.842;2023-05-29T14:45:53;7.60;;;1.48;;
39020;SDS011;25188;51.958;5.842;2023-05-29T14:48:18;6.72;;;1.42;;
39020;SDS011;25188;51.958;5.842;2023-05-29T14:50:44;7.22;;;1.25;;
39020;SDS011;25188;51.958;5.842;2023-05-29T14:53:10;6.07;;;1.30;;
39020;SDS011;25188;51.958;5.842;2023-05-29T14:55:35;7.07;;;1.25;;
39020;SDS011;25188;51.958;5.842;2023-05-29T14:58:03;7.65;;;1.88;;
39020;SDS011;25188;51.958;5.842;2023-05-29T15:00:29;7.18;;;1.73;;
39020;SDS011;25188;51.958;5.842;2023-05-29T15:02:54;7.75;;;1.70;;
39020;SDS011;25188;51.958;5.842;2023-05-29T15:05:22;7.47;;;1.70;;
39020;SDS011;25188;51.958;5.842;2023-05-29T15:07:47;10.88;;;2.00;;